Time;durP1;ratioP1;P1;durP2;ratioP2;P2;SDS_P1;SDS_P2;PMS_P1;PMS_P2;Temp;Humidity;BMP_temperature;BMP_pressure;BME280_temperature;BME280_humidity;BME280_pressure;Samples;Min_cycle;Max_cycle;Signal;HPM_P1;HPM_P2
2023/01/03 00:02:25;;;;;;;;;;;9.10;99.90;;;;;;5052114;28;20070;-71
2023/01/03 00:04:52;;;;;;;;;;;9.00;99.90;;;;;;5046901;28;19968;-71
2023/01/03 00:07:33;;;;;;;;;;;9.10;99.90;;;;;;5049393;28;20027;-70
2023/01/03 00:10:02;;;;;;;;;;;9.10;99.90;;;;;;5047111;28;19972;-71
2023/01/03 00:12:31;;;;;;;;;;;9.10;99.90;;;;;;5050084;28;20067;-70
2023/01/03 00:14:59;;;;;;;;;;;9.20;99.90;;;;;;5054492;28;19979;-70
2023/01/03 00:17:28;;;;;;;;;;;9.10;99.90;;;;;;5071972;28;19994;-70
2023/01/03 00:19:55;;;;;;;;;;;9.10;99.90;;;;;;5051489;28;20371;-69
2023/01/03 00:22:23;;;;;;;;;;;9.00;99.90;;;;;;5056011;28;20066;-69
2023/01/03 00:24:51;;;;;;;;;;;8.90;99.90;;;;;;5050035;28;20026;-70
2023/01/03 00:27:19;;;;;;;;;;;8.90;99.90;;;;;;5049155;28;20002;-70
2023/01/03 00:29:47;;;;;;;;;;;8.90;99.90;;;;;;5061156;28;19978;-71
2023/01/03 00:32:15;;;;;;;;;;;8.90;99.90;;;;;;5069951;28;19974;-71
2023/01/03 00:34:44;;;;;;;;;;;8.80;99.90;;;;;;5061210;28;19974;-72
2023/01/03 00:37:12;;;;;;;;;;;8.80;99.90;;;;;;5051865;28;20416;-73
2023/01/03 00:39:40;;;;;;;;;;;8.80;99.90;;;;;;5048728;28;20419;-72
2023/01/03 00:42:07;;;;;;;;;;;8.80;99.90;;;;;;5053142;28;19968;-72
2023/01/03 00:44:35;;;;;;;;;;;8.70;99.90;;;;;;5054027;28;20010;-73
2023/01/03 00:47:03;;;;;;;;;;;8.70;99.90;;;;;;5048605;28;19968;-72
2023/01/03 00:49:31;;;;;;;;;;;8.70;99.90;;;;;;5051519;28;19973;-68
2023/01/03 00:52:00;;;;;;;;;;;8.70;99.90;;;;;;5051515;28;20050;-70
2023/01/03 00:54:27;;;;;;;;;;;8.70;99.90;;;;;;5054399;28;20563;-69
2023/01/03 00:56:55;;;;;;;;;;;8.70;99.90;;;;;;5053948;28;19972;-70
2023/01/03 00:59:23;;;;;;;;;;;8.70;99.90;;;;;;5051245;28;20074;-70
2023/01/03 01:01:51;;;;;;;;;;;8.70;99.90;;;;;;5053283;28;19990;-69
2023/01/03 01:04:21;;;;;;;;;;;8.70;99.90;;;;;;5049221;28;20449;-70
2023/01/03 01:06:49;;;;;;;;;;;8.80;99.90;;;;;;5048351;28;20463;-70
2023/01/03 01:09:19;;;;;;;;;;;8.90;99.90;;;;;;5050570;28;19968;-69
2023/01/03 01:11:47;;;;;;;;;;;8.90;99.90;;;;;;5047841;28;20502;-69
2023/01/03 01:14:19;;;;;;;;;;;8.80;99.90;;;;;;5049872;28;19968;-69
2023/01/03 01:16:48;;;;;;;;;;;8.80;99.90;;;;;;5062713;28;20014;-69
2023/01/03 01:19:16;;;;;;;;;;;8.80;99.90;;;;;;5052665;28;20359;-69
2023/01/03 01:21:44;;;;;;;;;;;8.70;99.90;;;;;;5073220;22;20010;-64
2023/01/03 01:24:12;;;;;;;;;;;8.70;99.90;;;;;;5053019;28;20562;-64
2023/01/03 01:26:46;;;;;;;;;;;8.70;99.90;;;;;;5055461;28;19983;-65
2023/01/03 01:29:15;;;;;;;;;;;8.70;99.90;;;;;;5052648;28;20405;-64
2023/01/03 01:31:43;;;;;;;;;;;8.60;99.90;;;;;;5065422;28;20338;-64
2023/01/03 01:34:11;;;;;;;;;;;8.70;99.90;;;;;;5063035;28;19974;-65
2023/01/03 01:36:40;;;;;;;;;;;8.80;99.90;;;;;;5052894;28;20007;-65
2023/01/03 01:39:10;;;;;;;;;;;8.80;99.90;;;;;;5048971;28;19972;-64
2023/01/03 01:44:42;;;;;;;;;;;9.00;99.90;;;;;;5063006;28;20058;-64
2023/01/03 01:47:12;;;;;;;;;;;9.10;99.90;;;;;;5053902;28;19975;-64
2023/01/03 01:49:41;;;;;;;;;;;9.10;99.90;;;;;;5052180;28;20333;-65
2023/01/03 01:52:09;;;;;;;;;;;9.00;99.90;;;;;;5048718;28;20028;-65
2023/01/03 01:54:39;;;;;;;;;;;9.10;99.90;;;;;;5052624;28;20062;-65
2023/01/03 01:57:07;;;;;;;;;;;9.00;99.90;;;;;;5046145;28;19972;-66
2023/01/03 01:59:34;;;;;;;;;;;9.10;99.90;;;;;;5051473;28;19970;-64
2023/01/03 02:02:02;;;;;;;;;;;9.00;99.90;;;;;;5050281;28;19964;-64
2023/01/03 02:04:33;;;;;;;;;;;9.00;99.90;;;;;;5049741;28;19968;-65
2023/01/03 02:07:02;;;;;;;;;;;9.00;99.90;;;;;;5049774;28;20436;-65
2023/01/03 02:09:32;;;;;;;;;;;8.90;99.90;;;;;;5050731;28;19964;-64
2023/01/03 02:14:57;;;;;;;;;;;8.70;99.90;;;;;;5051288;28;19964;-65
2023/01/03 02:17:29;;;;;;;;;;;8.70;99.90;;;;;;5050542;28;20035;-65
2023/01/03 02:20:03;;;;;;;;;;;8.60;99.90;;;;;;5043152;28;20005;-64
2023/01/03 02:22:49;;;;;;;;;;;8.60;99.90;;;;;;5046617;28;19974;-63
2023/01/03 02:25:35;;;;;;;;;;;8.60;99.90;;;;;;5049918;28;19968;-65
2023/01/03 02:28:27;;;;;;;;;;;8.60;99.90;;;;;;5047677;28;20055;-64
2023/01/03 02:30:59;;;;;;;;;;;8.50;99.90;;;;;;5042754;28;19969;-64
2023/01/03 02:33:31;;;;;;;;;;;8.50;99.90;;;;;;5051215;28;19972;-65
2023/01/03 02:36:05;;;;;;;;;;;8.50;99.90;;;;;;5046967;28;19968;-63
2023/01/03 02:38:39;;;;;;;;;;;8.50;99.90;;;;;;5047873;28;20010;-64
2023/01/03 02:41:10;;;;;;;;;;;8.50;99.90;;;;;;5051165;28;20066;-64
2023/01/03 02:43:41;;;;;;;;;;;8.50;99.90;;;;;;5046945;28;19971;-64
2023/01/03 02:46:12;;;;;;;;;;;8.50;99.90;;;;;;5050659;28;19972;-64
2023/01/03 02:48:45;;;;;;;;;;;8.50;99.90;;;;;;5043467;28;19964;-64
2023/01/03 02:51:15;;;;;;;;;;;8.60;99.90;;;;;;5056035;28;20003;-64
2023/01/03 02:53:45;;;;;;;;;;;8.60;99.90;;;;;;5046770;28;20064;-65
2023/01/03 02:56:14;;;;;;;;;;;8.60;99.90;;;;;;5047693;28;20437;-64
2023/01/03 02:58:44;;;;;;;;;;;8.60;99.90;;;;;;5048463;28;20047;-64
2023/01/03 03:01:13;;;;;;;;;;;8.60;99.90;;;;;;5053843;28;20448;-63
2023/01/03 03:03:41;;;;;;;;;;;8.50;99.90;;;;;;5049609;28;20011;-65
2023/01/03 03:06:12;;;;;;;;;;;8.50;99.90;;;;;;5049817;28;19964;-64
2023/01/03 03:08:40;;;;;;;;;;;8.50;99.90;;;;;;5050900;28;19964;-64
2023/01/03 03:13:55;;;;;;;;;;;8.50;99.90;;;;;;5051695;28;19967;-65
2023/01/03 03:24:48;;;;;;;;;;;8.50;99.90;;;;;;5051835;28;19972;-64
2023/01/03 03:24:50;;;;;;;;;;;8.40;99.90;;;;;;5052920;28;19972;-64
2023/01/03 03:30:07;;;;;;;;;;;8.40;99.90;;;;;;5052893;28;19978;-64
2023/01/03 03:32:38;;;;;;;;;;;8.40;99.90;;;;;;5055466;28;20416;-64
2023/01/03 03:35:09;;;;;;;;;;;8.30;99.90;;;;;;5057612;28;19968;-65
2023/01/03 03:37:40;;;;;;;;;;;8.30;99.90;;;;;;5050845;28;21332;-64
2023/01/03 03:45:44;;;;;;;;;;;8.40;99.90;;;;;;5052514;28;20090;-63
2023/01/03 03:48:16;;;;;;;;;;;8.30;99.90;;;;;;5050151;28;19968;-64
2023/01/03 03:50:47;;;;;;;;;;;8.30;99.90;;;;;;5053293;28;19964;-64
2023/01/03 03:53:16;;;;;;;;;;;8.30;99.90;;;;;;5052369;28;20058;-64
2023/01/03 03:55:44;;;;;;;;;;;8.10;99.90;;;;;;5055662;28;19964;-65
2023/01/03 03:58:14;;;;;;;;;;;8.10;99.90;;;;;;5054479;28;20367;-65
2023/01/03 04:00:43;;;;;;;;;;;7.80;99.90;;;;;;5052480;28;20437;-65
2023/01/03 04:03:12;;;;;;;;;;;7.70;99.90;;;;;;5052643;28;19968;-64
2023/01/03 04:05:43;;;;;;;;;;;7.80;99.90;;;;;;5047385;28;19975;-64
2023/01/03 04:08:11;;;;;;;;;;;7.70;99.90;;;;;;5048499;28;19975;-64
2023/01/03 04:10:39;;;;;;;;;;;7.70;99.90;;;;;;5051590;28;19963;-64
2023/01/03 04:13:07;;;;;;;;;;;7.80;99.90;;;;;;5050208;28;20449;-64
2023/01/03 04:15:34;;;;;;;;;;;7.80;99.90;;;;;;5054867;28;19963;-65
2023/01/03 04:18:02;;;;;;;;;;;7.90;99.90;;;;;;5046902;28;20000;-65
2023/01/03 04:20:30;;;;;;;;;;;7.90;99.90;;;;;;5054813;28;19975;-66
2023/01/03 04:22:59;;;;;;;;;;;8.00;99.90;;;;;;5063208;28;20070;-64
2023/01/03 04:25:26;;;;;;;;;;;8.00;99.90;;;;;;5071831;28;20347;-64
2023/01/03 04:27:54;;;;;;;;;;;8.10;99.90;;;;;;5050225;28;19964;-64
2023/01/03 04:30:22;;;;;;;;;;;8.00;99.90;;;;;;5053976;28;20062;-65
2023/01/03 04:32:50;;;;;;;;;;;8.00;99.90;;;;;;5050974;28;19968;-64
2023/01/03 04:35:17;;;;;;;;;;;8.00;99.90;;;;;;5063216;28;19968;-64
2023/01/03 04:37:45;;;;;;;;;;;7.90;99.90;;;;;;5055824;28;20098;-64
2023/01/03 04:40:14;;;;;;;;;;;7.90;99.90;;;;;;5046687;28;19967;-65
2023/01/03 04:45:27;;;;;;;;;;;7.90;99.90;;;;;;5059123;28;19967;-65
2023/01/03 04:47:55;;;;;;;;;;;7.90;99.90;;;;;;5048420;28;19972;-64
2023/01/03 04:50:23;;;;;;;;;;;8.00;99.90;;;;;;5050675;28;20423;-65
2023/01/03 04:52:50;;;;;;;;;;;8.00;99.90;;;;;;5051359;28;19971;-64
2023/01/03 04:55:19;;;;;;;;;;;8.00;99.90;;;;;;5043588;28;19974;-65
2023/01/03 04:57:47;;;;;;;;;;;8.00;99.90;;;;;;5051865;28;20073;-65
2023/01/03 05:00:15;;;;;;;;;;;8.00;99.90;;;;;;5052332;28;20354;-64
2023/01/03 05:02:43;;;;;;;;;;;8.00;99.90;;;;;;5049876;28;20486;-64
2023/01/03 05:05:10;;;;;;;;;;;7.90;99.90;;;;;;5050066;28;19978;-65
2023/01/03 05:07:38;;;;;;;;;;;7.90;99.90;;;;;;5048690;28;20045;-65
2023/01/03 05:10:06;;;;;;;;;;;7.80;99.90;;;;;;5047857;28;20058;-63
2023/01/03 05:12:35;;;;;;;;;;;7.80;99.90;;;;;;5047845;28;20058;-65
2023/01/03 05:15:03;;;;;;;;;;;7.80;99.90;;;;;;5056945;28;19970;-64
2023/01/03 05:17:31;;;;;;;;;;;7.80;99.90;;;;;;5050170;28;19967;-64
2023/01/03 05:28:15;;;;;;;;;;;7.70;99.90;;;;;;5046435;28;19981;-64
2023/01/03 05:30:44;;;;;;;;;;;7.60;99.90;;;;;;5052797;28;20057;-64
2023/01/03 05:33:12;;;;;;;;;;;7.60;99.90;;;;;;5073543;28;20453;-64
2023/01/03 05:35:39;;;;;;;;;;;7.60;99.90;;;;;;5073365;28;20071;-64
2023/01/03 05:38:07;;;;;;;;;;;7.60;99.90;;;;;;5073538;28;20004;-64
2023/01/03 05:40:35;;;;;;;;;;;7.60;99.90;;;;;;5072675;28;20056;-64
2023/01/03 05:43:08;;;;;;;;;;;7.60;99.90;;;;;;5057847;28;19974;-64
2023/01/03 05:45:37;;;;;;;;;;;7.60;99.90;;;;;;5056416;28;20116;-64
2023/01/03 05:48:05;;;;;;;;;;;7.60;99.90;;;;;;5059961;28;19976;-64
2023/01/03 05:50:33;;;;;;;;;;;7.60;99.90;;;;;;5048243;28;19963;-64
2023/01/03 05:53:02;;;;;;;;;;;7.40;99.90;;;;;;5053485;28;20029;-65
2023/01/03 05:55:30;;;;;;;;;;;7.50;99.90;;;;;;5045106;28;20007;-63
2023/01/03 05:57:58;;;;;;;;;;;7.40;99.90;;;;;;5047963;28;20087;-64
2023/01/03 06:00:25;;;;;;;;;;;7.30;99.90;;;;;;5050331;28;20059;-64
2023/01/03 06:02:54;;;;;;;;;;;7.10;99.90;;;;;;5042369;28;19964;-64
2023/01/03 06:05:22;;;;;;;;;;;6.80;99.90;;;;;;5047760;28;19971;-63
2023/01/03 06:07:50;;;;;;;;;;;6.60;99.90;;;;;;5048445;28;19964;-65
2023/01/03 06:10:17;;;;;;;;;;;6.50;99.90;;;;;;5047439;28;20508;-64
2023/01/03 06:12:45;;;;;;;;;;;6.30;99.90;;;;;;5050006;28;19994;-64
2023/01/03 06:15:13;;;;;;;;;;;6.10;99.90;;;;;;5050802;28;20398;-63
2023/01/03 06:17:56;;;;;;;;;;;6.00;99.90;;;;;;5052672;28;19979;-64
2023/01/03 06:20:26;;;;;;;;;;;5.80;99.90;;;;;;5050344;28;19974;-64
2023/01/03 06:22:54;;;;;;;;;;;5.70;99.90;;;;;;5047359;28;20442;-64
2023/01/03 06:25:22;;;;;;;;;;;5.40;99.90;;;;;;5049426;28;19965;-62
2023/01/03 06:27:49;;;;;;;;;;;5.30;99.90;;;;;;5059221;28;19999;-64
2023/01/03 06:30:17;;;;;;;;;;;5.20;99.90;;;;;;5058012;28;19971;-64
2023/01/03 06:32:45;;;;;;;;;;;5.20;99.90;;;;;;5050574;28;20017;-64
2023/01/03 06:35:13;;;;;;;;;;;5.20;99.90;;;;;;5050920;28;19968;-63
2023/01/03 06:37:42;;;;;;;;;;;5.20;99.90;;;;;;5053346;28;20516;-64
2023/01/03 06:40:10;;;;;;;;;;;5.30;99.90;;;;;;5056023;28;19975;-64
2023/01/03 06:42:42;;;;;;;;;;;5.10;99.90;;;;;;5046459;28;19992;-64
2023/01/03 06:53:32;;;;;;;;;;;4.90;99.90;;;;;;5049812;28;20033;-64
2023/01/03 06:55:59;;;;;;;;;;;4.90;99.90;;;;;;5053536;28;20495;-64
2023/01/03 06:58:28;;;;;;;;;;;4.90;99.90;;;;;;5050657;28;20420;-65
2023/01/03 07:00:56;;;;;;;;;;;4.90;99.90;;;;;;5050054;28;19971;-64
2023/01/03 07:03:24;;;;;;;;;;;4.90;99.90;;;;;;5048638;28;19964;-64
2023/01/03 07:05:52;;;;;;;;;;;4.90;99.90;;;;;;5049977;28;20067;-64
2023/01/03 07:08:20;;;;;;;;;;;4.90;99.90;;;;;;5061525;28;19968;-64
2023/01/03 07:10:49;;;;;;;;;;;4.90;99.90;;;;;;5044041;28;20057;-64
2023/01/03 07:16:02;;;;;;;;;;;4.90;99.90;;;;;;5046777;28;19968;-65
2023/01/03 07:18:30;;;;;;;;;;;4.90;99.90;;;;;;5049337;28;19971;-64
2023/01/03 07:20:58;;;;;;;;;;;4.90;99.90;;;;;;5059357;28;19999;-64
2023/01/03 07:23:26;;;;;;;;;;;4.90;99.90;;;;;;5090323;22;19971;-65
2023/01/03 07:25:55;;;;;;;;;;;4.80;99.90;;;;;;5050732;28;19964;-65
2023/01/03 07:28:23;;;;;;;;;;;4.80;99.90;;;;;;5054215;28;20007;-65
2023/01/03 07:30:51;;;;;;;;;;;4.80;99.90;;;;;;5053947;28;19973;-64
2023/01/03 07:33:19;;;;;;;;;;;4.80;99.90;;;;;;5037603;28;20445;-64
2023/01/03 07:35:46;;;;;;;;;;;4.80;99.90;;;;;;5034317;28;19977;-64
2023/01/03 07:38:14;;;;;;;;;;;4.80;99.90;;;;;;5034356;28;19968;-64
2023/01/03 07:40:42;;;;;;;;;;;4.70;99.90;;;;;;5022838;28;20427;-64
2023/01/03 07:45:56;;;;;;;;;;;4.70;99.90;;;;;;5014335;28;20071;-65
2023/01/03 07:48:24;;;;;;;;;;;4.70;99.90;;;;;;5014658;28;19973;-64
2023/01/03 07:50:56;;;;;;;;;;;4.70;99.90;;;;;;5014497;28;20004;-64
2023/01/03 07:53:24;;;;;;;;;;;4.70;99.90;;;;;;5014350;28;20051;-64
2023/01/03 07:55:51;;;;;;;;;;;4.70;99.90;;;;;;5028954;28;19964;-65
2023/01/03 07:58:20;;;;;;;;;;;4.60;99.90;;;;;;5033938;28;20415;-64
2023/01/03 08:00:48;;;;;;;;;;;4.60;99.90;;;;;;5033256;28;20076;-64
2023/01/03 08:03:16;;;;;;;;;;;4.60;99.90;;;;;;5033787;28;20353;-65
2023/01/03 08:05:44;;;;;;;;;;;4.60;99.90;;;;;;5016880;28;19969;-64
2023/01/03 08:08:11;;;;;;;;;;;4.60;99.90;;;;;;5013883;28;19972;-64
2023/01/03 08:13:26;;;;;;;;;;;4.70;99.90;;;;;;5014228;28;19968;-64
2023/01/03 08:15:54;;;;;;;;;;;4.80;99.90;;;;;;5013959;28;20107;-65
2023/01/03 08:18:23;;;;;;;;;;;4.80;99.90;;;;;;5014087;28;20067;-64
2023/01/03 08:20:53;;;;;;;;;;;4.90;99.90;;;;;;5032800;28;20018;-65
2023/01/03 08:23:21;;;;;;;;;;;5.00;99.90;;;;;;5033361;28;20087;-65
2023/01/03 08:25:49;;;;;;;;;;;5.10;99.90;;;;;;5033014;28;20081;-65
2023/01/03 08:28:17;;;;;;;;;;;5.20;99.90;;;;;;5033321;28;20022;-64
2023/01/03 08:30:47;;;;;;;;;;;5.30;99.90;;;;;;5032972;28;20494;-64
2023/01/03 08:33:16;;;;;;;;;;;5.40;99.90;;;;;;5033028;28;19969;-65
2023/01/03 08:35:45;;;;;;;;;;;5.50;99.90;;;;;;5025456;28;20014;-64
2023/01/03 08:38:14;;;;;;;;;;;5.70;99.90;;;;;;5033266;28;20076;-65
2023/01/03 08:40:42;;;;;;;;;;;5.70;99.90;;;;;;5030734;28;20019;-64
2023/01/03 08:43:12;;;;;;;;;;;5.80;99.90;;;;;;5033001;28;20322;-65
2023/01/03 08:45:39;;;;;;;;;;;5.90;99.90;;;;;;5032591;28;20504;-65
2023/01/03 08:48:09;;;;;;;;;;;6.10;99.90;;;;;;5032202;28;19991;-65
2023/01/03 08:50:37;;;;;;;;;;;6.20;99.90;;;;;;5020017;28;19968;-65
2023/01/03 08:53:05;;;;;;;;;;;6.50;99.90;;;;;;5013109;28;20004;-65
2023/01/03 08:55:33;;;;;;;;;;;6.70;99.90;;;;;;5025083;28;20103;-65
2023/01/03 08:58:01;;;;;;;;;;;7.00;99.90;;;;;;5032563;28;19968;-65
2023/01/03 09:00:29;;;;;;;;;;;7.40;99.90;;;;;;5032116;28;20645;-65
2023/01/03 09:02:58;;;;;;;;;;;7.80;99.90;;;;;;5031745;28;20074;-65
2023/01/03 09:05:28;;;;;;;;;;;8.10;99.90;;;;;;5026421;28;19964;-65
2023/01/03 09:07:57;;;;;;;;;;;7.90;99.90;;;;;;5012456;28;20023;-65
2023/01/03 09:10:25;;;;;;;;;;;7.60;99.90;;;;;;5012276;28;19969;-65
2023/01/03 09:12:53;;;;;;;;;;;7.70;99.90;;;;;;5012722;28;20444;-65
2023/01/03 09:15:22;;;;;;;;;;;7.70;99.90;;;;;;5012808;28;20520;-65
2023/01/03 09:17:50;;;;;;;;;;;7.50;99.90;;;;;;5012589;28;19981;-65
2023/01/03 09:20:18;;;;;;;;;;;7.30;99.90;;;;;;5012111;28;19973;-65
2023/01/03 09:22:47;;;;;;;;;;;7.20;99.90;;;;;;5012476;28;19975;-65
2023/01/03 09:25:15;;;;;;;;;;;7.10;99.90;;;;;;5030962;28;19968;-65
2023/01/03 09:27:47;;;;;;;;;;;7.00;99.90;;;;;;5031946;28;20019;-65
2023/01/03 09:30:15;;;;;;;;;;;6.70;99.90;;;;;;5031681;28;19975;-65
2023/01/03 09:32:43;;;;;;;;;;;6.70;99.90;;;;;;5032144;28;19994;-65
2023/01/03 09:35:10;;;;;;;;;;;6.80;99.90;;;;;;5032554;28;20006;-65
2023/01/03 09:37:38;;;;;;;;;;;6.80;99.90;;;;;;5032185;28;19978;-65
2023/01/03 09:40:15;;;;;;;;;;;6.90;99.90;;;;;;5031432;28;19980;-65
2023/01/03 09:45:30;;;;;;;;;;;6.90;99.90;;;;;;5031702;28;20019;-65
2023/01/03 09:47:59;;;;;;;;;;;7.10;99.90;;;;;;5031912;28;19968;-65
2023/01/03 09:50:28;;;;;;;;;;;7.10;99.90;;;;;;5031275;28;20015;-65
2023/01/03 10:04:41;;;;;;;;;;;8.10;99.90;;;;;;5031536;28;20006;-65
2023/01/03 10:07:14;;;;;;;;;;;8.50;99.90;;;;;;5024959;28;19978;-65
2023/01/03 10:09:49;;;;;;;;;;;8.90;99.90;;;;;;5011378;28;19969;-65
2023/01/03 10:12:25;;;;;;;;;;;9.20;99.90;;;;;;5011563;28;19968;-65
2023/01/03 10:15:01;;;;;;;;;;;9.70;99.90;;;;;;5012095;28;20031;-65
2023/01/03 10:17:33;;;;;;;;;;;10.10;99.90;;;;;;5012080;28;20008;-65
2023/01/03 10:20:18;;;;;;;;;;;10.50;99.90;;;;;;5011332;28;19977;-65
2023/01/03 10:22:47;;;;;;;;;;;11.00;99.90;;;;;;5026812;28;19969;-65
2023/01/03 10:25:17;;;;;;;;;;;11.10;99.90;;;;;;5031400;28;20406;-65
2023/01/03 10:27:47;;;;;;;;;;;11.20;99.90;;;;;;5031330;28;20346;-65
2023/01/03 10:30:16;;;;;;;;;;;11.00;99.90;;;;;;5030915;28;19972;-65
2023/01/03 10:32:51;;;;;;;;;;;10.40;99.90;;;;;;5031233;28;20079;-65
2023/01/03 10:35:20;;;;;;;;;;;10.00;99.90;;;;;;5031272;28;20424;-65
2023/01/03 10:37:50;;;;;;;;;;;9.90;99.90;;;;;;5029444;28;19976;-65
2023/01/03 10:40:17;;;;;;;;;;;9.60;99.90;;;;;;5011396;28;19972;-65
2023/01/03 10:42:49;;;;;;;;;;;9.40;99.90;;;;;;5011445;28;19969;-65
2023/01/03 10:45:18;;;;;;;;;;;9.30;99.90;;;;;;5011821;28;19972;-64
2023/01/03 10:47:57;;;;;;;;;;;9.10;99.90;;;;;;5011497;28;19995;-64
2023/01/03 10:50:24;;;;;;;;;;;9.00;99.90;;;;;;5011168;28;19969;-64
2023/01/03 10:52:56;;;;;;;;;;;8.90;99.90;;;;;;5016099;28;19999;-64
2023/01/03 10:55:25;;;;;;;;;;;8.70;99.90;;;;;;5031028;28;20468;-64
2023/01/03 10:58:01;;;;;;;;;;;8.60;99.90;;;;;;5031203;28;20030;-64
2023/01/03 11:00:31;;;;;;;;;;;8.50;99.90;;;;;;5030549;28;19968;-64
2023/01/03 11:03:10;;;;;;;;;;;8.40;99.90;;;;;;5031064;28;20015;-64
2023/01/03 11:05:39;;;;;;;;;;;8.50;99.90;;;;;;5031311;28;19968;-64
2023/01/03 11:08:14;;;;;;;;;;;8.50;99.90;;;;;;5030973;28;20348;-65
2023/01/03 11:10:49;;;;;;;;;;;8.50;99.90;;;;;;5033284;28;19972;-64
2023/01/03 11:13:23;;;;;;;;;;;8.40;99.90;;;;;;5025277;28;20248;-64
2023/01/03 11:15:53;;;;;;;;;;;8.40;99.90;;;;;;5015395;28;20023;-64
2023/01/03 11:18:21;;;;;;;;;;;8.30;99.90;;;;;;5015511;28;19968;-64
2023/01/03 11:20:52;;;;;;;;;;;8.40;99.90;;;;;;5044135;28;20433;-64
2023/01/03 11:23:25;;;;;;;;;;;8.30;99.90;;;;;;5054051;28;19974;-64
2023/01/03 11:25:56;;;;;;;;;;;8.30;99.90;;;;;;5039295;28;19971;-64
2023/01/03 11:28:44;;;;;;;;;;;8.30;99.90;;;;;;5024233;28;19968;-64
2023/01/03 11:31:22;;;;;;;;;;;8.30;99.90;;;;;;5011047;28;20058;-64
2023/01/03 11:33:59;;;;;;;;;;;8.20;99.90;;;;;;5014278;28;20329;-64
2023/01/03 11:36:32;;;;;;;;;;;8.20;99.90;;;;;;5014810;28;19972;-64
2023/01/03 11:39:06;;;;;;;;;;;8.20;99.90;;;;;;5014660;28;20016;-64
2023/01/03 11:41:48;;;;;;;;;;;8.20;99.90;;;;;;5013700;28;19971;-64
2023/01/03 11:44:27;;;;;;;;;;;8.30;99.90;;;;;;5014163;28;20015;-64
2023/01/03 11:47:01;;;;;;;;;;;8.30;99.90;;;;;;5014623;28;19980;-64
2023/01/03 11:49:33;;;;;;;;;;;8.30;99.90;;;;;;5014707;28;19976;-64
2023/01/03 11:52:13;;;;;;;;;;;8.30;99.90;;;;;;5014189;28;20056;-65
2023/01/03 11:54:50;;;;;;;;;;;8.30;99.90;;;;;;5019022;28;19965;-65
2023/01/03 11:57:24;;;;;;;;;;;8.30;99.90;;;;;;5031488;28;19974;-65
2023/01/03 11:59:56;;;;;;;;;;;8.40;99.90;;;;;;5026775;28;19998;-64
2023/01/03 12:02:39;;;;;;;;;;;8.30;99.90;;;;;;5033791;28;19972;-64
2023/01/03 12:05:18;;;;;;;;;;;8.30;99.90;;;;;;5024972;28;19972;-64
2023/01/03 12:07:51;;;;;;;;;;;8.30;99.90;;;;;;5026594;28;20060;-64
2023/01/03 12:10:22;;;;;;;;;;;8.30;99.90;;;;;;5013308;28;20067;-64
2023/01/03 12:13:02;;;;;;;;;;;8.30;99.90;;;;;;5013821;28;20465;-64
2023/01/03 12:15:36;;;;;;;;;;;8.30;99.90;;;;;;5013904;28;19973;-64
2023/01/03 12:18:07;;;;;;;;;;;8.30;99.90;;;;;;5014063;28;19973;-64
2023/01/03 12:20:38;;;;;;;;;;;8.30;99.90;;;;;;5012884;28;19977;-64
2023/01/03 12:23:14;;;;;;;;;;;8.30;99.90;;;;;;5033145;28;20353;-64
2023/01/03 12:25:43;;;;;;;;;;;8.30;99.90;;;;;;5033249;28;20087;-64
2023/01/03 12:28:14;;;;;;;;;;;8.40;99.90;;;;;;5033173;28;20012;-65
2023/01/03 12:30:43;;;;;;;;;;;8.40;99.90;;;;;;5025486;28;19973;-66
2023/01/03 12:33:20;;;;;;;;;;;8.40;99.90;;;;;;5033246;28;19975;-66
2023/01/03 12:35:50;;;;;;;;;;;8.50;99.90;;;;;;5027144;28;20459;-65
2023/01/03 12:38:20;;;;;;;;;;;8.60;99.90;;;;;;5013497;28;19969;-66
2023/01/03 12:40:50;;;;;;;;;;;8.60;99.90;;;;;;5012851;28;19968;-65
2023/01/03 12:43:20;;;;;;;;;;;8.60;99.90;;;;;;5013130;28;20068;-66
2023/01/03 12:45:51;;;;;;;;;;;8.50;99.90;;;;;;5013334;28;20458;-65
2023/01/03 12:48:37;;;;;;;;;;;8.60;99.90;;;;;;5013261;28;19968;-66
2023/01/03 12:51:06;;;;;;;;;;;8.60;99.90;;;;;;5013872;28;19965;-65
2023/01/03 12:53:36;;;;;;;;;;;8.60;99.90;;;;;;5012931;28;19968;-66
2023/01/03 12:56:13;;;;;;;;;;;8.50;99.90;;;;;;5013194;28;19981;-65
2023/01/03 12:58:45;;;;;;;;;;;8.50;99.90;;;;;;5031747;28;20066;-65
2023/01/03 13:01:16;;;;;;;;;;;8.40;99.90;;;;;;5032055;28;19991;-65
2023/01/03 13:03:47;;;;;;;;;;;8.40;99.90;;;;;;5032872;28;19976;-65
2023/01/03 13:06:18;;;;;;;;;;;8.30;99.90;;;;;;5032770;28;19972;-65
2023/01/03 13:08:49;;;;;;;;;;;8.30;99.90;;;;;;5032740;28;19975;-65
2023/01/03 13:11:19;;;;;;;;;;;8.30;99.90;;;;;;5019382;28;20050;-65
2023/01/03 13:13:52;;;;;;;;;;;8.30;99.90;;;;;;5029212;28;20504;-66
2023/01/03 13:16:30;;;;;;;;;;;8.30;99.90;;;;;;5032553;28;20448;-65
2023/01/03 13:19:33;;;;;;;;;;;8.20;99.90;;;;;;5032609;28;20464;-65
2023/01/03 13:22:22;;;;;;;;;;;8.30;99.90;;;;;;5032792;28;20064;-66
2023/01/03 13:24:52;;;;;;;;;;;8.40;99.90;;;;;;4988539;28;19979;-62
2023/01/03 13:27:35;;;;;;;;;;;8.40;99.90;;;;;;4992275;28;19996;-63
2023/01/03 13:30:16;;;;;;;;;;;8.40;99.90;;;;;;4984022;28;19971;-63
2023/01/03 13:32:48;;;;;;;;;;;8.40;99.90;;;;;;4992565;28;20002;-63
2023/01/03 13:35:29;;;;;;;;;;;8.50;99.90;;;;;;4992711;28;19969;-64
2023/01/03 13:37:59;;;;;;;;;;;8.50;99.90;;;;;;4992723;28;20455;-64
2023/01/03 13:40:29;;;;;;;;;;;8.60;99.90;;;;;;4973561;28;19970;-64
2023/01/03 13:43:17;;;;;;;;;;;8.60;99.90;;;;;;4953566;29;19981;-64
2023/01/03 13:45:49;;;;;;;;;;;8.70;99.90;;;;;;4953858;29;19978;-64
2023/01/03 13:48:19;;;;;;;;;;;8.70;99.90;;;;;;4953970;29;20028;-64
2023/01/03 13:51:24;;;;;;;;;;;8.70;99.90;;;;;;4953369;29;19977;-63
2023/01/03 13:53:53;;;;;;;;;;;8.80;99.90;;;;;;4953893;29;19974;-64
2023/01/03 13:56:23;;;;;;;;;;;8.90;99.90;;;;;;4953767;29;20005;-64
2023/01/03 13:58:53;;;;;;;;;;;8.90;99.90;;;;;;4974679;28;20440;-64
2023/01/03 14:01:25;;;;;;;;;;;8.90;99.90;;;;;;4962684;28;19970;-64
2023/01/03 14:04:03;;;;;;;;;;;8.90;99.90;;;;;;4953454;28;19970;-64
2023/01/03 14:06:45;;;;;;;;;;;8.90;99.90;;;;;;4953667;29;19970;-64
2023/01/03 14:09:36;;;;;;;;;;;8.90;99.90;;;;;;4953695;29;20110;-63
2023/01/03 14:12:22;;;;;;;;;;;8.90;99.90;;;;;;4953288;28;19970;-63
2023/01/03 14:14:52;;;;;;;;;;;9.00;99.90;;;;;;4953710;28;20363;-63
2023/01/03 14:17:23;;;;;;;;;;;9.00;99.90;;;;;;4953499;28;20434;-63
2023/01/03 14:19:53;;;;;;;;;;;9.10;99.90;;;;;;4953073;29;19970;-64
2023/01/03 14:22:21;;;;;;;;;;;9.20;99.90;;;;;;4953179;28;20335;-63
2023/01/03 14:24:58;;;;;;;;;;;9.10;99.90;;;;;;4953356;29;19980;-63
2023/01/03 14:27:31;;;;;;;;;;;9.20;99.90;;;;;;4957346;28;20404;-64
2023/01/03 14:30:00;;;;;;;;;;;9.20;99.90;;;;;;4978047;28;20060;-64
2023/01/03 14:32:29;;;;;;;;;;;9.10;99.90;;;;;;4963698;28;19970;-64
2023/01/03 14:35:01;;;;;;;;;;;9.00;99.90;;;;;;4953146;28;19970;-63
2023/01/03 14:37:31;;;;;;;;;;;9.00;99.90;;;;;;4953298;28;19981;-64
2023/01/03 14:40:00;;;;;;;;;;;9.00;99.90;;;;;;4952708;28;20376;-64
2023/01/03 14:42:29;;;;;;;;;;;9.00;99.90;;;;;;4953077;28;19977;-64
2023/01/03 14:44:57;;;;;;;;;;;9.00;99.90;;;;;;4960041;28;20537;-63
2023/01/03 14:47:30;;;;;;;;;;;9.00;99.90;;;;;;4976657;28;20426;-64
2023/01/03 14:49:57;;;;;;;;;;;9.00;99.90;;;;;;4975736;28;19979;-64
2023/01/03 14:52:28;;;;;;;;;;;9.10;99.90;;;;;;4976147;28;19975;-64
2023/01/03 14:54:56;;;;;;;;;;;9.10;99.90;;;;;;4976269;28;20350;-64
2023/01/03 14:57:36;;;;;;;;;;;9.10;99.90;;;;;;4971787;28;20068;-64
2023/01/03 15:00:05;;;;;;;;;;;9.10;99.90;;;;;;4986678;28;20442;-64
2023/01/03 15:02:36;;;;;;;;;;;9.10;99.90;;;;;;4995632;28;20072;-64
2023/01/03 15:05:05;;;;;;;;;;;9.10;99.90;;;;;;4989389;28;19981;-64
2023/01/03 15:07:34;;;;;;;;;;;9.10;99.90;;;;;;4976168;28;20068;-64
2023/01/03 15:10:16;;;;;;;;;;;9.10;99.90;;;;;;4975424;28;19975;-64
2023/01/03 15:12:46;;;;;;;;;;;9.20;99.90;;;;;;4975428;28;20072;-64
2023/01/03 15:15:18;;;;;;;;;;;9.30;99.90;;;;;;4975644;28;19980;-63
2023/01/03 15:17:46;;;;;;;;;;;9.30;99.90;;;;;;4975959;28;19973;-64
2023/01/03 15:20:16;;;;;;;;;;;9.30;99.90;;;;;;4967831;28;20024;-64
2023/01/03 15:22:44;;;;;;;;;;;9.30;99.90;;;;;;4956189;28;19970;-64
2023/01/03 15:25:16;;;;;;;;;;;9.40;99.90;;;;;;4972671;28;19970;-63
2023/01/03 15:27:46;;;;;;;;;;;9.30;99.90;;;;;;4973266;28;19964;-64
2023/01/03 15:30:23;;;;;;;;;;;9.30;99.90;;;;;;4985939;28;20060;-63
2023/01/03 15:32:59;;;;;;;;;;;9.20;99.90;;;;;;4995078;28;20020;-64
2023/01/03 15:35:32;;;;;;;;;;;9.30;99.90;;;;;;4994958;28;19973;-64
2023/01/03 15:38:00;;;;;;;;;;;9.30;99.90;;;;;;4994966;28;20061;-64
2023/01/03 15:40:29;;;;;;;;;;;9.20;99.90;;;;;;4977306;28;19992;-64
2023/01/03 15:45:48;;;;;;;;;;;9.10;99.90;;;;;;4956062;29;20076;-64
2023/01/03 15:48:18;;;;;;;;;;;9.00;99.90;;;;;;4956419;29;20329;-63
2023/01/03 15:50:47;;;;;;;;;;;9.00;99.90;;;;;;4954999;29;19974;-62
2023/01/03 15:53:25;;;;;;;;;;;9.00;99.90;;;;;;4955852;29;19997;-63
2023/01/03 15:55:55;;;;;;;;;;;8.90;99.90;;;;;;4954667;28;20060;-63
2023/01/03 15:58:25;;;;;;;;;;;8.80;99.90;;;;;;4972897;28;20480;-64